Time;durP1;ratioP1;P1;durP2;ratioP2;P2;SDS_P1;SDS_P2;PMS_P1;PMS_P2;Temp;Humidity;BMP_temperature;BMP_pressure;BME280_temperature;BME280_humidity;BME280_pressure;Samples;Min_cycle;Max_cycle;Signal;HPM_P1;HPM_P2
2020/12/13 00:01:49;;;;;;;41.60;15.80;;;;;;;;;;4823815;29;20069;-69
2020/12/13 00:04:16;;;;;;;43.10;17.40;;;;;;;;;;4823698;29;20566;-69
2020/12/13 00:06:42;;;;;;;40.45;16.65;;;;;;;;;;4824347;29;20150;-69
2020/12/13 00:09:08;;;;;;;46.53;16.65;;;;;;;;;;4818990;29;20054;-69
2020/12/13 00:11:35;;;;;;;41.13;15.60;;;;;;;;;;4821533;29;20063;-69
2020/12/13 00:14:02;;;;;;;37.22;14.50;;;;;;;;;;4823619;29;20054;-69
2020/12/13 00:16:28;;;;;;;40.22;15.25;;;;;;;;;;4823503;29;20099;-69
2020/12/13 00:18:55;;;;;;;31.48;13.32;;;;;;;;;;4823706;29;20046;-69
2020/12/13 00:21:26;;;;;;;33.97;13.80;;;;;;;;;;4822065;29;20046;-69
2020/12/13 00:23:53;;;;;;;44.00;16.75;;;;;;;;;;4824056;29;20042;-70
2020/12/13 00:26:20;;;;;;;40.88;15.18;;;;;;;;;;4818604;29;20042;-69
2020/12/13 00:28:47;;;;;;;34.13;14.82;;;;;;;;;;4820741;29;20062;-69
2020/12/13 00:31:14;;;;;;;31.42;14.30;;;;;;;;;;4818937;29;20054;-68
2020/12/13 00:33:41;;;;;;;38.63;15.00;;;;;;;;;;4823835;29;20050;-69
2020/12/13 00:36:07;;;;;;;39.37;15.27;;;;;;;;;;4822758;29;20070;-69
2020/12/13 00:38:34;;;;;;;35.05;15.35;;;;;;;;;;4821017;29;20397;-69
2020/12/13 00:41:00;;;;;;;37.47;15.50;;;;;;;;;;4823093;29;20133;-69
2020/12/13 00:43:27;;;;;;;39.92;14.95;;;;;;;;;;4824087;29;20042;-69
2020/12/13 00:45:53;;;;;;;42.75;16.15;;;;;;;;;;4821776;29;20526;-69
2020/12/13 00:48:20;;;;;;;41.58;16.25;;;;;;;;;;4816348;29;20530;-69
2020/12/13 00:50:47;;;;;;;39.37;15.57;;;;;;;;;;4813717;29;20057;-69
2020/12/13 00:53:13;;;;;;;40.75;15.00;;;;;;;;;;4819587;29;20499;-69
2020/12/13 00:55:40;;;;;;;38.90;15.98;;;;;;;;;;4821172;29;20072;-69
2020/12/13 00:58:11;;;;;;;35.33;15.20;;;;;;;;;;4822302;29;20500;-69
2020/12/13 01:00:37;;;;;;;44.85;15.90;;;;;;;;;;4822886;29;20054;-69
2020/12/13 01:03:04;;;;;;;38.35;15.00;;;;;;;;;;4823439;29;20042;-69
2020/12/13 01:05:30;;;;;;;41.67;15.48;;;;;;;;;;4825603;29;20046;-69
2020/12/13 01:07:56;;;;;;;43.60;15.25;;;;;;;;;;4825389;29;20054;-69
2020/12/13 01:10:22;;;;;;;44.05;15.55;;;;;;;;;;4820310;29;20039;-68
2020/12/13 01:12:49;;;;;;;38.70;14.88;;;;;;;;;;4820352;29;20034;-69
2020/12/13 01:15:16;;;;;;;39.22;15.60;;;;;;;;;;4818869;29;20047;-69
2020/12/13 01:17:45;;;;;;;43.67;15.25;;;;;;;;;;4819119;29;20107;-69
2020/12/13 01:20:12;;;;;;;33.13;15.70;;;;;;;;;;4818137;29;20508;-69
2020/12/13 01:22:39;;;;;;;32.05;13.80;;;;;;;;;;4820582;29;20443;-69
2020/12/13 01:25:06;;;;;;;30.83;12.80;;;;;;;;;;4820796;29;20046;-69
2020/12/13 01:27:32;;;;;;;29.35;13.50;;;;;;;;;;4821304;29;20034;-69
2020/12/13 01:29:58;;;;;;;31.02;12.20;;;;;;;;;;4817163;29;20133;-69
2020/12/13 01:32:24;;;;;;;29.27;12.63;;;;;;;;;;4818388;29;20516;-69
2020/12/13 01:34:51;;;;;;;31.63;12.73;;;;;;;;;;4816283;29;20058;-69
2020/12/13 01:37:17;;;;;;;30.13;12.95;;;;;;;;;;4818200;29;20115;-69
2020/12/13 01:39:48;;;;;;;26.05;11.75;;;;;;;;;;4819469;29;20038;-69
2020/12/13 01:42:14;;;;;;;32.80;12.50;;;;;;;;;;4822242;29;20125;-69
2020/12/13 01:44:40;;;;;;;24.75;11.55;;;;;;;;;;4824424;29;20053;-69
2020/12/13 01:47:07;;;;;;;25.25;11.38;;;;;;;;;;4820940;29;20042;-69
2020/12/13 01:49:39;;;;;;;31.30;12.15;;;;;;;;;;4821563;29;20046;-70
2020/12/13 01:54:56;;;;;;;23.15;10.77;;;;;;;;;;4815506;29;20047;-69
2020/12/13 01:57:23;;;;;;;24.40;10.90;;;;;;;;;;4819614;29;20054;-70
2020/12/13 01:59:52;;;;;;;26.55;11.18;;;;;;;;;;4824194;29;20583;-69
2020/12/13 02:02:22;;;;;;;25.15;11.48;;;;;;;;;;4826733;29;20046;-69
2020/12/13 02:04:55;;;;;;;24.67;10.93;;;;;;;;;;4825892;29;20523;-69
2020/12/13 02:07:22;;;;;;;29.73;11.05;;;;;;;;;;4836346;29;20058;-69
2020/12/13 02:09:48;;;;;;;24.73;11.40;;;;;;;;;;4822434;29;20495;-69
2020/12/13 02:12:14;;;;;;;23.75;10.85;;;;;;;;;;4820375;29;20057;-69
2020/12/13 02:14:40;;;;;;;26.58;11.48;;;;;;;;;;4822857;29;20046;-69
2020/12/13 02:17:06;;;;;;;21.77;9.88;;;;;;;;;;4821324;29;20142;-69
2020/12/13 02:19:32;;;;;;;24.45;11.57;;;;;;;;;;4823284;29;20552;-69
2020/12/13 02:22:00;;;;;;;27.08;12.07;;;;;;;;;;4822004;29;20506;-69
2020/12/13 02:24:27;;;;;;;23.25;11.40;;;;;;;;;;4818664;29;20446;-69
2020/12/13 02:26:53;;;;;;;25.27;12.52;;;;;;;;;;4821888;29;20135;-69
2020/12/13 02:29:20;;;;;;;33.88;12.25;;;;;;;;;;4820455;29;20051;-69
2020/12/13 02:31:46;;;;;;;27.48;12.50;;;;;;;;;;4817717;29;20038;-69
2020/12/13 02:34:12;;;;;;;25.95;11.00;;;;;;;;;;4817293;29;20129;-69
2020/12/13 02:36:39;;;;;;;26.67;11.55;;;;;;;;;;4817454;29;20046;-69
2020/12/13 02:39:06;;;;;;;26.02;12.15;;;;;;;;;;4816169;29;20061;-69
2020/12/13 02:41:32;;;;;;;28.73;11.77;;;;;;;;;;4818615;29;20137;-70
2020/12/13 02:43:58;;;;;;;26.88;12.07;;;;;;;;;;4821515;29;20518;-69
2020/12/13 02:46:24;;;;;;;32.25;12.18;;;;;;;;;;4814506;29;20051;-69
2020/12/13 02:48:51;;;;;;;23.60;11.60;;;;;;;;;;4816859;29;20069;-69
2020/12/13 02:51:18;;;;;;;24.70;11.60;;;;;;;;;;4819113;29;20356;-70
2020/12/13 02:53:44;;;;;;;23.37;10.90;;;;;;;;;;4821096;29;20712;-69
2020/12/13 02:56:11;;;;;;;28.85;11.70;;;;;;;;;;4821761;29;20307;-70
2020/12/13 02:58:37;;;;;;;23.20;11.57;;;;;;;;;;4821098;29;20054;-69
2020/12/13 03:01:03;;;;;;;25.00;11.32;;;;;;;;;;4821419;29;20051;-69
2020/12/13 03:03:30;;;;;;;26.42;12.40;;;;;;;;;;4822534;29;20046;-69
2020/12/13 03:05:56;;;;;;;26.92;11.30;;;;;;;;;;4820658;29;20050;-69
2020/12/13 03:08:22;;;;;;;25.83;11.38;;;;;;;;;;4828794;29;20580;-69
2020/12/13 03:10:49;;;;;;;23.83;11.30;;;;;;;;;;4818174;29;20046;-69
2020/12/13 03:13:15;;;;;;;25.48;11.45;;;;;;;;;;4818108;29;20150;-69
2020/12/13 03:15:41;;;;;;;25.52;11.23;;;;;;;;;;4817285;29;20054;-69
2020/12/13 03:18:08;;;;;;;26.47;12.00;;;;;;;;;;4816617;29;20084;-69
2020/12/13 03:20:35;;;;;;;28.30;11.48;;;;;;;;;;4821078;29;20050;-69
2020/12/13 03:23:01;;;;;;;26.55;11.15;;;;;;;;;;4823540;29;20057;-69
2020/12/13 03:25:27;;;;;;;24.50;10.38;;;;;;;;;;4821385;29;20054;-69
2020/12/13 03:27:53;;;;;;;23.75;11.48;;;;;;;;;;4821564;29;20456;-69
2020/12/13 03:30:20;;;;;;;26.42;11.25;;;;;;;;;;4821215;29;20061;-69
2020/12/13 03:32:46;;;;;;;27.23;10.63;;;;;;;;;;4818382;29;20058;-69
2020/12/13 03:35:12;;;;;;;24.40;10.50;;;;;;;;;;4816110;29;20464;-69
2020/12/13 03:37:38;;;;;;;23.27;9.75;;;;;;;;;;4817498;29;20061;-69
2020/12/13 03:40:06;;;;;;;20.80;9.68;;;;;;;;;;4819701;29;20121;-69
2020/12/13 03:42:32;;;;;;;;;;;;;;;;;;4816120;29;20119;-69
2020/12/13 03:44:58;;;;;;;19.42;8.77;;;;;;;;;;4819802;29;19924;-69
2020/12/13 03:47:25;;;;;;;19.58;9.32;;;;;;;;;;4820075;29;20187;-69
2020/12/13 03:49:51;;;;;;;19.23;8.25;;;;;;;;;;4820996;29;20046;-69
2020/12/13 03:52:17;;;;;;;14.48;8.70;;;;;;;;;;4821469;29;20087;-69
2020/12/13 03:54:44;;;;;;;15.15;7.80;;;;;;;;;;4818208;29;20050;-69
2020/12/13 03:57:11;;;;;;;12.77;6.95;;;;;;;;;;4817495;29;20058;-69
2020/12/13 03:59:37;;;;;;;9.73;5.57;;;;;;;;;;4812642;29;20104;-69
2020/12/13 04:02:04;;;;;;;14.50;6.65;;;;;;;;;;4819247;29;20054;-69
2020/12/13 04:04:31;;;;;;;;;;;;;;;;;;4817874;29;20088;-69
2020/12/13 04:06:57;;;;;;;9.13;5.20;;;;;;;;;;4816574;29;19925;-69
2020/12/13 04:09:23;;;;;;;9.00;4.07;;;;;;;;;;4822316;29;20039;-69
2020/12/13 04:11:49;;;;;;;8.52;4.45;;;;;;;;;;4824282;29;20048;-69
2020/12/13 04:14:15;;;;;;;4.93;3.75;;;;;;;;;;4822192;29;20050;-68
2020/12/13 04:16:44;;;;;;;4.95;3.30;;;;;;;;;;4823895;29;20460;-69
2020/12/13 04:19:11;;;;;;;5.82;3.08;;;;;;;;;;4823370;29;20133;-69
2020/12/13 04:21:38;;;;;;;3.70;2.70;;;;;;;;;;4823937;29;20579;-69
2020/12/13 04:24:04;;;;;;;4.65;3.10;;;;;;;;;;4821296;29;20042;-69
2020/12/13 04:26:32;;;;;;;6.63;3.33;;;;;;;;;;4823325;29;20084;-69
2020/12/13 04:28:58;;;;;;;;;;;;;;;;;;4825214;29;20103;-69
2020/12/13 04:31:24;;;;;;;4.85;2.65;;;;;;;;;;4822128;29;20020;-69
2020/12/13 04:33:51;;;;;;;4.85;2.60;;;;;;;;;;4822933;29;20605;-69
2020/12/13 04:36:17;;;;;;;4.43;2.65;;;;;;;;;;4823088;29;20095;-70
2020/12/13 04:38:44;;;;;;;3.72;2.67;;;;;;;;;;4821299;29;20119;-69
2020/12/13 04:41:11;;;;;;;2.60;2.00;;;;;;;;;;4820502;29;20111;-69
2020/12/13 04:43:38;;;;;;;3.13;2.08;;;;;;;;;;4821452;29;20114;-69
2020/12/13 04:46:06;;;;;;;4.57;2.15;;;;;;;;;;4823488;29;20054;-69
2020/12/13 04:48:33;;;;;;;3.00;2.03;;;;;;;;;;4826674;29;20460;-69
2020/12/13 04:51:00;;;;;;;2.75;2.20;;;;;;;;;;4823650;29;20046;-69
2020/12/13 04:53:29;;;;;;;3.70;1.90;;;;;;;;;;4820891;29;20047;-69
2020/12/13 04:55:56;;;;;;;3.70;2.22;;;;;;;;;;4820796;29;20050;-69
2020/12/13 04:58:27;;;;;;;2.10;1.42;;;;;;;;;;4822029;29;20054;-69
2020/12/13 05:00:55;;;;;;;3.53;2.03;;;;;;;;;;4823385;29;20050;-69
2020/12/13 05:03:22;;;;;;;3.47;2.00;;;;;;;;;;4824970;29;20505;-69
2020/12/13 05:05:48;;;;;;;3.15;2.05;;;;;;;;;;4823633;29;20502;-69
2020/12/13 05:08:14;;;;;;;2.50;1.90;;;;;;;;;;4823580;29;20114;-69
2020/12/13 05:10:41;;;;;;;5.45;1.98;;;;;;;;;;4823136;29;20108;-69
2020/12/13 05:13:08;;;;;;;3.42;1.65;;;;;;;;;;4817807;29;20050;-69
2020/12/13 05:15:35;;;;;;;3.90;1.90;;;;;;;;;;4818755;29;20074;-69
2020/12/13 05:18:01;;;;;;;3.55;1.90;;;;;;;;;;4819728;29;20517;-69
2020/12/13 05:20:28;;;;;;;2.38;1.88;;;;;;;;;;4816302;29;20157;-69
2020/12/13 05:23:01;;;;;;;2.33;2.00;;;;;;;;;;4821167;29;20167;-69
2020/12/13 05:25:34;;;;;;;2.28;2.05;;;;;;;;;;4821928;29;20098;-69
2020/12/13 05:28:02;;;;;;;2.55;2.00;;;;;;;;;;4820308;29;20042;-69
2020/12/13 05:30:36;;;;;;;2.30;1.75;;;;;;;;;;4819711;29;20129;-69
2020/12/13 05:33:04;;;;;;;5.13;1.90;;;;;;;;;;4819273;29;20406;-69
2020/12/13 05:35:31;;;;;;;2.80;1.92;;;;;;;;;;4822713;29;20141;-69
2020/12/13 05:37:57;;;;;;;4.25;1.85;;;;;;;;;;4820273;29;20103;-69
2020/12/13 05:40:24;;;;;;;2.30;1.70;;;;;;;;;;4819696;29;20454;-69
2020/12/13 05:43:05;;;;;;;2.13;1.90;;;;;;;;;;4818307;29;20077;-69
2020/12/13 05:48:28;;;;;;;4.60;2.38;;;;;;;;;;4821095;29;20049;-69
2020/12/13 05:51:15;;;;;;;2.50;1.95;;;;;;;;;;4823072;29;20495;-69
2020/12/13 05:53:43;;;;;;;5.68;1.95;;;;;;;;;;4824049;29;20050;-69
2020/12/13 05:56:20;;;;;;;3.10;2.00;;;;;;;;;;4821949;29;20065;-69
2020/12/13 05:58:47;;;;;;;1.27;1.15;;;;;;;;;;4824817;29;20552;-69
2020/12/13 06:01:15;;;;;;;1.67;1.40;;;;;;;;;;4817180;29;20515;-69
2020/12/13 06:03:48;;;;;;;4.68;1.50;;;;;;;;;;4820420;29;20454;-69
2020/12/13 06:06:18;;;;;;;2.55;1.70;;;;;;;;;;4818460;29;20103;-69
2020/12/13 06:09:04;;;;;;;2.40;1.42;;;;;;;;;;4819923;29;20052;-69
2020/12/13 06:11:40;;;;;;;3.00;1.58;;;;;;;;;;4822179;29;20038;-69
2020/12/13 06:14:07;;;;;;;2.10;1.40;;;;;;;;;;4822275;29;20077;-69
2020/12/13 06:16:34;;;;;;;1.52;1.40;;;;;;;;;;4821600;29;20486;-69
2020/12/13 06:19:01;;;;;;;4.47;1.80;;;;;;;;;;4817895;29;20095;-69
2020/12/13 06:21:28;;;;;;;1.58;1.42;;;;;;;;;;4821924;29;20054;-69
2020/12/13 06:23:55;;;;;;;2.15;1.50;;;;;;;;;;4822101;29;20464;-69
2020/12/13 06:26:21;;;;;;;1.70;1.30;;;;;;;;;;4820967;29;20092;-69
2020/12/13 06:28:48;;;;;;;5.30;2.00;;;;;;;;;;4818885;29;20170;-69
2020/12/13 06:31:17;;;;;;;2.42;1.92;;;;;;;;;;4821202;29;20078;-69
2020/12/13 06:33:44;;;;;;;2.67;1.90;;;;;;;;;;4818227;29;20050;-69
2020/12/13 06:36:11;;;;;;;3.97;1.70;;;;;;;;;;4817140;29;20840;-69
2020/12/13 06:38:41;;;;;;;4.85;1.80;;;;;;;;;;4815342;29;20049;-69
2020/12/13 06:41:12;;;;;;;1.90;1.50;;;;;;;;;;4821049;29;20038;-69
2020/12/13 06:43:39;;;;;;;2.35;1.77;;;;;;;;;;4818814;29;20034;-69
2020/12/13 06:46:09;;;;;;;2.95;1.88;;;;;;;;;;4814887;29;20810;-69
2020/12/13 06:48:37;;;;;;;2.63;1.67;;;;;;;;;;4818215;29;20552;-69
2020/12/13 06:51:06;;;;;;;3.45;2.05;;;;;;;;;;4818580;29;20088;-69
2020/12/13 06:53:33;;;;;;;3.65;1.90;;;;;;;;;;4819826;29;20092;-69
2020/12/13 06:56:09;;;;;;;3.30;1.88;;;;;;;;;;4818143;29;20081;-69
2020/12/13 06:58:43;;;;;;;2.40;1.38;;;;;;;;;;4819132;29;20122;-69
2020/12/13 07:01:19;;;;;;;2.38;1.48;;;;;;;;;;4819807;29;20047;-69
2020/12/13 07:03:46;;;;;;;2.25;1.60;;;;;;;;;;4821729;29;20054;-69
2020/12/13 07:06:46;;;;;;;2.72;1.70;;;;;;;;;;4819139;29;20050;-69
2020/12/13 07:09:09;;;;;;;3.17;2.03;;;;;;;;;;4819892;29;20065;-69
2020/12/13 07:11:36;;;;;;;5.03;2.03;;;;;;;;;;4820558;29;20046;-70
2020/12/13 07:14:03;;;;;;;2.23;1.77;;;;;;;;;;4815562;29;20491;-69
2020/12/13 07:16:34;;;;;;;2.05;1.60;;;;;;;;;;4818783;29;20411;-69
2020/12/13 07:19:02;;;;;;;1.90;1.45;;;;;;;;;;4817275;29;20051;-69
2020/12/13 07:21:29;;;;;;;2.53;1.75;;;;;;;;;;4818327;29;20050;-69
2020/12/13 07:23:58;;;;;;;4.40;2.00;;;;;;;;;;4817267;29;20326;-70
2020/12/13 07:26:25;;;;;;;1.83;1.60;;;;;;;;;;4815802;29;20050;-69
2020/12/13 07:28:52;;;;;;;2.60;1.50;;;;;;;;;;4817343;29;20125;-69
2020/12/13 07:31:19;;;;;;;2.15;1.77;;;;;;;;;;4820381;29;20118;-70
2020/12/13 07:33:48;;;;;;;3.35;1.90;;;;;;;;;;4826650;29;20106;-70
2020/12/13 07:36:14;;;;;;;5.93;2.08;;;;;;;;;;4820765;29;20110;-69
2020/12/13 07:38:41;;;;;;;2.07;1.77;;;;;;;;;;4818580;29;20130;-69
2020/12/13 07:41:15;;;;;;;2.30;1.70;;;;;;;;;;4815746;29;20058;-69
2020/12/13 07:43:54;;;;;;;3.25;2.10;;;;;;;;;;4815159;29;20481;-69
2020/12/13 07:46:20;;;;;;;2.40;1.70;;;;;;;;;;4821282;29;20054;-69
2020/12/13 07:48:47;;;;;;;2.90;1.97;;;;;;;;;;4826192;29;20054;-69
2020/12/13 07:51:13;;;;;;;4.55;1.90;;;;;;;;;;4823577;29;20043;-69
2020/12/13 07:53:39;;;;;;;2.33;1.63;;;;;;;;;;4824958;29;20050;-69
2020/12/13 07:56:06;;;;;;;2.28;1.95;;;;;;;;;;4820351;29;20473;-69
2020/12/13 07:58:32;;;;;;;3.70;1.95;;;;;;;;;;4818327;29;20073;-70
2020/12/13 08:01:10;;;;;;;3.70;1.90;;;;;;;;;;4821863;29;20087;-69
2020/12/13 08:03:44;;;;;;;2.80;2.05;;;;;;;;;;4822972;29;20034;-69
2020/12/13 08:06:13;;;;;;;2.58;2.00;;;;;;;;;;4821351;29;20524;-69
2020/12/13 08:08:43;;;;;;;2.67;2.05;;;;;;;;;;4823776;29;20038;-69
2020/12/13 08:11:13;;;;;;;3.63;2.10;;;;;;;;;;4823646;29;20058;-69
2020/12/13 08:13:49;;;;;;;2.20;1.88;;;;;;;;;;4820667;29;20406;-69
2020/12/13 08:16:16;;;;;;;2.83;2.20;;;;;;;;;;4820573;29;22352;-69
2020/12/13 08:18:44;;;;;;;2.88;2.03;;;;;;;;;;4818942;29;20504;-69
2020/12/13 08:21:12;;;;;;;3.00;1.98;;;;;;;;;;4822380;29;20054;-70
2020/12/13 08:23:39;;;;;;;2.90;2.20;;;;;;;;;;4822702;29;20048;-70
2020/12/13 08:26:17;;;;;;;2.88;2.20;;;;;;;;;;4820735;29;20134;-69
2020/12/13 08:28:45;;;;;;;3.95;2.53;;;;;;;;;;4822820;29;20050;-69
2020/12/13 08:31:13;;;;;;;;;;;;;;;;;;4816099;29;20541;-69
2020/12/13 08:33:41;;;;;;;4.38;2.17;;;;;;;;;;4820430;29;19959;-69
2020/12/13 08:36:20;;;;;;;3.95;2.10;;;;;;;;;;4806642;29;20077;-69
2020/12/13 08:39:19;;;;;;;3.15;2.40;;;;;;;;;;4818058;29;20046;-69
2020/12/13 08:41:45;;;;;;;3.90;2.40;;;;;;;;;;4819962;29;20119;-69
2020/12/13 08:44:32;;;;;;;3.55;2.40;;;;;;;;;;4822192;29;20507;-69
2020/12/13 08:46:59;;;;;;;4.03;2.45;;;;;;;;;;4817803;29;20073;-69
2020/12/13 08:49:25;;;;;;;;;;;;;;;;;;4824954;29;20561;-69
2020/12/13 08:51:51;;;;;;;4.20;2.45;;;;;;;;;;4823625;29;19925;-69
2020/12/13 08:54:18;;;;;;;3.80;2.33;;;;;;;;;;4820092;29;20142;-69
2020/12/13 08:57:02;;;;;;;5.07;2.42;;;;;;;;;;4818174;29;20054;-69
2020/12/13 08:59:28;;;;;;;5.72;2.70;;;;;;;;;;4823623;29;20078;-69
2020/12/13 09:01:57;;;;;;;4.32;3.08;;;;;;;;;;4828909;29;20094;-69
2020/12/13 09:04:28;;;;;;;4.38;2.80;;;;;;;;;;4825778;29;20145;-69
2020/12/13 09:06:58;;;;;;;5.25;2.63;;;;;;;;;;4821143;29;20049;-69
2020/12/13 09:09:29;;;;;;;3.67;2.60;;;;;;;;;;4832290;29;20117;-69
2020/12/13 09:11:56;;;;;;;7.00;2.55;;;;;;;;;;4825267;29;20042;-69
2020/12/13 09:14:30;;;;;;;7.05;3.00;;;;;;;;;;4819753;29;20050;-69
2020/12/13 09:16:57;;;;;;;5.13;2.83;;;;;;;;;;4822181;29;20053;-69
2020/12/13 09:19:23;;;;;;;4.72;2.92;;;;;;;;;;4821532;29;20494;-69
2020/12/13 09:21:59;;;;;;;6.35;3.30;;;;;;;;;;4823132;29;20726;-69
2020/12/13 09:24:31;;;;;;;5.35;3.63;;;;;;;;;;4817594;29;20058;-70
2020/12/13 09:27:03;;;;;;;4.18;3.20;;;;;;;;;;4817698;29;20072;-69
2020/12/13 09:29:30;;;;;;;6.43;3.22;;;;;;;;;;4819756;29;20057;-69
2020/12/13 09:31:57;;;;;;;4.75;2.95;;;;;;;;;;4814327;29;20058;-69
2020/12/13 09:34:23;;;;;;;4.27;3.27;;;;;;;;;;4818619;29;20412;-69
2020/12/13 09:36:50;;;;;;;5.70;3.30;;;;;;;;;;4820585;29;20065;-69
2020/12/13 09:39:31;;;;;;;5.13;3.05;;;;;;;;;;4817655;29;20487;-69
2020/12/13 09:41:58;;;;;;;5.57;3.20;;;;;;;;;;4830614;29;20047;-69
2020/12/13 09:44:25;;;;;;;9.20;3.05;;;;;;;;;;4823699;29;20050;-69
2020/12/13 09:46:55;;;;;;;5.18;3.35;;;;;;;;;;4822766;29;20123;-69
2020/12/13 09:49:22;;;;;;;9.07;3.45;;;;;;;;;;4822800;29;20491;-69
2020/12/13 09:51:48;;;;;;;9.13;3.60;;;;;;;;;;4822963;29;20047;-69
2020/12/13 09:54:14;;;;;;;6.15;3.30;;;;;;;;;;4819279;29;20057;-69
2020/12/13 09:56:41;;;;;;;6.70;3.47;;;;;;;;;;4821464;29;20132;-69
2020/12/13 09:59:07;;;;;;;5.38;3.35;;;;;;;;;;4821945;29;20054;-69
2020/12/13 10:01:34;;;;;;;6.88;3.72;;;;;;;;;;4823424;29;20053;-69
2020/12/13 10:04:01;;;;;;;6.63;3.80;;;;;;;;;;4822532;29;20156;-69
2020/12/13 10:09:06;;;;;;;7.18;4.40;;;;;;;;;;4820386;29;20053;-69
2020/12/13 10:11:34;;;;;;;7.93;4.10;;;;;;;;;;4817000;29;20050;-69
2020/12/13 10:14:00;;;;;;;6.43;4.43;;;;;;;;;;4821388;29;20181;-69
2020/12/13 10:16:26;;;;;;;12.10;4.95;;;;;;;;;;4821748;29;20053;-69
2020/12/13 10:18:53;;;;;;;9.37;4.43;;;;;;;;;;4822699;29;20042;-69
2020/12/13 10:21:21;;;;;;;5.65;3.92;;;;;;;;;;4818628;29;20752;-69
2020/12/13 10:23:47;;;;;;;8.52;4.68;;;;;;;;;;4817646;29;20074;-69
2020/12/13 10:26:13;;;;;;;11.45;4.70;;;;;;;;;;4819724;29;20544;-69
2020/12/13 10:28:39;;;;;;;7.97;5.10;;;;;;;;;;4814434;29;20480;-69
2020/12/13 10:31:07;;;;;;;11.55;4.90;;;;;;;;;;4821859;29;20050;-69
2020/12/13 10:33:39;;;;;;;9.85;5.18;;;;;;;;;;4824296;29;20455;-69
2020/12/13 10:36:09;;;;;;;8.13;5.38;;;;;;;;;;4822343;29;20122;-68
2020/12/13 10:38:36;;;;;;;7.88;4.47;;;;;;;;;;4818131;29;20050;-69
2020/12/13 10:41:06;;;;;;;7.33;5.20;;;;;;;;;;4818848;29;20061;-69
2020/12/13 10:43:32;;;;;;;9.38;5.75;;;;;;;;;;4818598;29;20782;-69
2020/12/13 10:46:00;;;;;;;12.07;5.80;;;;;;;;;;4820996;29;20110;-69
2020/12/13 10:48:27;;;;;;;10.48;5.35;;;;;;;;;;4816873;29;20050;-69
2020/12/13 10:50:54;;;;;;;10.52;5.93;;;;;;;;;;4815128;29;20061;-69
2020/12/13 10:53:20;;;;;;;8.55;5.45;;;;;;;;;;4818011;29;20096;-69
2020/12/13 10:55:46;;;;;;;7.70;5.13;;;;;;;;;;4818755;29;20050;-69
2020/12/13 10:58:13;;;;;;;8.60;5.28;;;;;;;;;;4817141;29;20058;-69
2020/12/13 11:00:39;;;;;;;9.57;5.20;;;;;;;;;;4818845;29;20046;-69
2020/12/13 11:03:05;;;;;;;8.38;5.55;;;;;;;;;;4815719;29;20054;-69
2020/12/13 11:05:32;;;;;;;11.05;5.10;;;;;;;;;;4817091;29;20110;-69
2020/12/13 11:07:58;;;;;;;8.60;5.45;;;;;;;;;;4821188;29;20050;-69
2020/12/13 11:10:26;;;;;;;6.93;4.88;;;;;;;;;;4821795;29;20057;-69
2020/12/13 11:12:52;;;;;;;7.72;5.20;;;;;;;;;;4822030;29;20046;-69
2020/12/13 11:15:19;;;;;;;8.18;5.20;;;;;;;;;;4815152;29;20496;-69
2020/12/13 11:17:45;;;;;;;9.75;5.00;;;;;;;;;;4815679;29;20046;-69
2020/12/13 11:20:12;;;;;;;9.45;5.43;;;;;;;;;;4819547;29;23487;-69
2020/12/13 11:22:38;;;;;;;10.50;4.65;;;;;;;;;;4819908;29;20129;-69
2020/12/13 11:25:04;;;;;;;11.18;4.93;;;;;;;;;;4825478;29;20045;-69
2020/12/13 11:27:31;;;;;;;11.90;5.05;;;;;;;;;;4821988;29;20631;-69
2020/12/13 11:29:57;;;;;;;8.88;4.88;;;;;;;;;;4821648;29;20563;-69
2020/12/13 11:32:25;;;;;;;;;;;;;;;;;;4824886;29;20454;-69
2020/12/13 11:34:51;;;;;;;7.90;4.90;;;;;;;;;;4825256;29;20008;-69
2020/12/13 11:37:18;;;;;;;6.97;4.45;;;;;;;;;;4820366;29;20073;-69
2020/12/13 11:39:44;;;;;;;7.35;5.03;;;;;;;;;;4821691;29;20107;-69
2020/12/13 11:42:10;;;;;;;7.85;4.50;;;;;;;;;;4823235;29;20077;-69
2020/12/13 11:44:37;;;;;;;9.85;5.57;;;;;;;;;;4824542;29;20487;-69
2020/12/13 11:47:03;;;;;;;9.10;4.90;;;;;;;;;;4823850;29;20054;-69
2020/12/13 11:49:30;;;;;;;9.13;5.28;;;;;;;;;;4819132;29;20053;-69
2020/12/13 11:51:56;;;;;;;7.05;5.10;;;;;;;;;;4823686;29;20095;-69
2020/12/13 11:54:23;;;;;;;8.60;4.95;;;;;;;;;;4816760;29;20503;-69
2020/12/13 11:56:49;;;;;;;9.37;5.30;;;;;;;;;;4809329;29;20046;-69
2020/12/13 11:59:15;;;;;;;7.07;5.15;;;;;;;;;;4816680;29;20440;-69
2020/12/13 12:01:42;;;;;;;7.63;4.90;;;;;;;;;;4816586;29;20110;-69
2020/12/13 12:04:08;;;;;;;8.88;5.70;;;;;;;;;;4821199;29;20047;-69
2020/12/13 12:06:35;;;;;;;11.02;5.03;;;;;;;;;;4820157;29;20089;-69
2020/12/13 12:09:02;;;;;;;8.55;6.07;;;;;;;;;;4819413;29;20482;-69
2020/12/13 12:11:29;;;;;;;9.15;5.97;;;;;;;;;;4817678;29;20057;-70
2020/12/13 12:13:55;;;;;;;10.48;6.25;;;;;;;;;;4818028;29;20042;-70
2020/12/13 12:16:25;;;;;;;11.52;7.13;;;;;;;;;;4820057;29;20050;-69
2020/12/13 12:18:52;;;;;;;9.75;5.63;;;;;;;;;;4820108;29;20047;-68
2020/12/13 12:21:20;;;;;;;9.57;6.95;;;;;;;;;;4813042;29;20051;-69
2020/12/13 12:23:46;;;;;;;10.70;6.07;;;;;;;;;;4820501;29;20346;-69
2020/12/13 12:26:12;;;;;;;12.10;6.82;;;;;;;;;;4821010;29;20580;-69
2020/12/13 12:28:39;;;;;;;11.90;7.10;;;;;;;;;;4816715;29;20122;-69
2020/12/13 12:31:05;;;;;;;14.15;7.15;;;;;;;;;;4810833;29;20318;-69
2020/12/13 12:33:31;;;;;;;10.38;6.53;;;;;;;;;;4818599;29;20058;-69
2020/12/13 12:36:01;;;;;;;11.55;7.28;;;;;;;;;;4817619;29;20046;-69
2020/12/13 12:38:27;;;;;;;14.10;7.85;;;;;;;;;;4819503;29;20050;-69
2020/12/13 12:40:53;;;;;;;16.95;7.28;;;;;;;;;;4819586;29;20061;-69
2020/12/13 12:43:20;;;;;;;13.35;7.50;;;;;;;;;;4819760;29;20530;-69
2020/12/13 12:45:46;;;;;;;13.90;7.57;;;;;;;;;;4816906;29;20768;-69
2020/12/13 12:48:15;;;;;;;11.68;6.90;;;;;;;;;;4815856;29;20042;-69
2020/12/13 12:50:42;;;;;;;12.57;7.35;;;;;;;;;;4813468;29;20134;-69
2020/12/13 12:53:09;;;;;;;12.40;7.13;;;;;;;;;;4810379;29;20050;-69
2020/12/13 12:55:36;;;;;;;17.70;7.43;;;;;;;;;;4819040;29;20061;-69
2020/12/13 12:58:03;;;;;;;13.82;8.25;;;;;;;;;;4818920;29;20054;-69
2020/12/13 13:00:49;;;;;;;16.48;8.07;;;;;;;;;;4818546;29;21789;-69
2020/12/13 13:03:16;;;;;;;13.75;7.63;;;;;;;;;;4824422;29;20043;-69
2020/12/13 13:05:56;;;;;;;13.68;7.65;;;;;;;;;;4818104;29;20074;-69
2020/12/13 13:08:37;;;;;;;15.32;7.10;;;;;;;;;;4816743;29;20065;-69
2020/12/13 13:11:12;;;;;;;15.88;7.63;;;;;;;;;;4817720;29;20058;-69
2020/12/13 13:13:39;;;;;;;14.68;7.90;;;;;;;;;;4818420;29;20066;-69
2020/12/13 13:16:05;;;;;;;16.42;8.23;;;;;;;;;;4818425;29;20747;-69
2020/12/13 13:18:34;;;;;;;15.27;7.47;;;;;;;;;;4818519;29;20056;-69
2020/12/13 13:21:03;;;;;;;24.50;8.63;;;;;;;;;;4819074;29;20050;-69
2020/12/13 13:23:29;;;;;;;15.63;8.00;;;;;;;;;;4818414;29;20646;-69
2020/12/13 13:25:55;;;;;;;18.05;8.60;;;;;;;;;;4813898;29;20078;-69
2020/12/13 13:28:21;;;;;;;18.52;9.02;;;;;;;;;;4816422;29;20038;-69
2020/12/13 13:30:48;;;;;;;17.05;8.07;;;;;;;;;;4821256;29;20046;-69
2020/12/13 13:33:14;;;;;;;20.05;8.75;;;;;;;;;;4821529;29;20529;-69
2020/12/13 13:35:41;;;;;;;16.83;8.77;;;;;;;;;;4820328;29;20042;-69
2020/12/13 13:38:07;;;;;;;17.90;8.32;;;;;;;;;;4820790;29;20066;-69
2020/12/13 13:40:35;;;;;;;18.48;9.10;;;;;;;;;;4819226;29;20053;-69
2020/12/13 13:43:04;;;;;;;10.75;6.75;;;;;;;;;;4817734;29;20050;-69
2020/12/13 13:50:42;;;;;;;16.23;8.40;;;;;;;;;;4817021;29;20053;-69
2020/12/13 13:53:10;;;;;;;18.40;8.90;;;;;;;;;;4819319;29;20050;-70
2020/12/13 13:55:36;;;;;;;;;;;;;;;;;;4821473;29;20125;-69
2020/12/13 13:58:03;;;;;;;19.25;8.20;;;;;;;;;;4819959;29;19931;-69
2020/12/13 14:00:29;;;;;;;16.98;9.25;;;;;;;;;;4821834;29;20137;-69
2020/12/13 14:02:55;;;;;;;20.70;9.85;;;;;;;;;;4819863;29;20042;-69
2020/12/13 14:05:24;;;;;;;22.73;9.95;;;;;;;;;;4820472;29;20404;-69
2020/12/13 14:08:51;;;;;;;18.15;9.05;;;;;;;;;;4821409;29;20117;-70
2020/12/13 14:10:47;;;;;;;21.25;10.27;;;;;;;;;;4818753;29;20140;-69
2020/12/13 14:13:14;;;;;;;25.03;9.80;;;;;;;;;;4820691;29;20052;-69
2020/12/13 14:15:40;;;;;;;18.60;8.80;;;;;;;;;;4820721;29;20046;-69
2020/12/13 14:18:07;;;;;;;22.13;10.75;;;;;;;;;;4821755;29;20070;-70
2020/12/13 14:20:33;;;;;;;16.75;9.60;;;;;;;;;;4820952;29;20049;-69
2020/12/13 14:22:59;;;;;;;19.60;10.38;;;;;;;;;;4820062;29;20498;-69
2020/12/13 14:25:26;;;;;;;21.05;10.20;;;;;;;;;;4818955;29;20066;-69
2020/12/13 14:27:52;;;;;;;20.35;9.63;;;;;;;;;;4821900;29;20070;-69
2020/12/13 14:30:18;;;;;;;18.95;9.52;;;;;;;;;;4819861;29;20500;-69
2020/12/13 14:32:45;;;;;;;17.17;9.57;;;;;;;;;;4818163;29;20043;-71
2020/12/13 14:35:13;;;;;;;17.83;9.77;;;;;;;;;;4822340;29;20040;-69
2020/12/13 14:37:43;;;;;;;20.63;10.23;;;;;;;;;;4814461;29;20137;-70
2020/12/13 14:40:10;;;;;;;19.55;9.38;;;;;;;;;;4808641;29;20183;-70
2020/12/13 14:42:36;;;;;;;15.82;8.73;;;;;;;;;;4818191;29;20564;-69
2020/12/13 14:45:03;;;;;;;18.85;9.48;;;;;;;;;;4817396;29;20125;-70
2020/12/13 14:47:31;;;;;;;18.40;9.50;;;;;;;;;;4816814;29;20056;-69
2020/12/13 14:49:57;;;;;;;16.15;9.55;;;;;;;;;;4812198;29;20314;-70
2020/12/13 14:52:23;;;;;;;17.50;9.35;;;;;;;;;;4799709;29;20057;-70
2020/12/13 14:54:50;;;;;;;17.83;9.85;;;;;;;;;;4816704;29;20125;-69